createdAt,value
2022-10-20T07:10:33.886Z,14.30
2022-10-20T07:13:00.500Z,14.30
2022-10-20T07:15:27.258Z,14.40
2022-10-20T07:17:53.907Z,14.40
2022-10-20T07:20:20.560Z,14.40
2022-10-20T07:22:47.157Z,14.50
2022-10-20T07:25:13.808Z,14.50
2022-10-20T07:27:40.449Z,14.60
2022-10-20T07:30:07.494Z,14.60
2022-10-20T07:32:34.376Z,14.60
2022-10-20T07:35:01.152Z,14.70
2022-10-20T07:37:27.758Z,14.80
2022-10-20T07:39:54.398Z,14.80
2022-10-20T07:42:21.041Z,14.90
2022-10-20T07:44:47.715Z,14.90
2022-10-20T07:47:14.348Z,14.90
2022-10-20T07:49:44.883Z,15.00
2022-10-20T07:52:12.196Z,15.00
2022-10-20T07:54:38.839Z,15.00
2022-10-20T07:57:05.673Z,15.10
2022-10-20T07:59:32.382Z,15.10
2022-10-20T08:02:00.217Z,15.20
2022-10-20T08:04:28.024Z,15.30
2022-10-20T08:06:54.656Z,15.30
2022-10-20T08:09:21.277Z,15.40
2022-10-20T08:11:51.406Z,15.40
2022-10-20T08:14:21.103Z,15.50
2022-10-20T08:16:47.807Z,15.50
2022-10-20T08:19:15.888Z,15.60
2022-10-20T08:21:42.484Z,15.60
2022-10-20T08:24:09.160Z,15.70
2022-10-20T08:26:35.787Z,15.80
2022-10-20T08:29:02.688Z,15.80
2022-10-20T08:31:29.453Z,15.90
2022-10-20T08:33:56.821Z,16.00
2022-10-20T08:36:23.459Z,16.10
2022-10-20T08:38:50.090Z,16.10
2022-10-20T08:41:38.775Z,16.20
2022-10-20T08:44:21.974Z,16.30
2022-10-20T08:46:48.758Z,16.40
2022-10-20T08:49:30.758Z,16.40
2022-10-20T08:51:58.695Z,16.50
2022-10-20T08:54:25.626Z,16.60
2022-10-20T08:56:52.797Z,16.70
2022-10-20T08:59:27.413Z,16.80
2022-10-20T09:01:55.417Z,16.80
2022-10-20T09:07:32.094Z,17.00
2022-10-20T09:10:13.217Z,17.00
2022-10-20T09:12:43.757Z,17.10
2022-10-20T09:15:15.662Z,17.20
2022-10-20T09:17:45.870Z,17.30
2022-10-20T09:20:25.789Z,17.30
2022-10-20T09:22:52.495Z,17.40
2022-10-20T09:25:23.994Z,17.50
2022-10-20T09:27:52.106Z,17.60
2022-10-20T09:30:33.898Z,17.70
2022-10-20T09:33:01.035Z,17.80
2022-10-20T09:35:32.999Z,17.80
2022-10-20T09:38:11.391Z,17.80
2022-10-20T09:41:06.952Z,17.90
2022-10-20T09:43:33.866Z,17.90
2022-10-20T09:46:06.450Z,17.90
2022-10-20T09:48:36.355Z,17.90
2022-10-20T09:51:05.794Z,17.90
2022-10-20T09:53:52.041Z,17.90
2022-10-20T09:56:46.840Z,17.90
2022-10-20T09:59:28.123Z,18.00
2022-10-20T10:02:23.912Z,18.00
2022-10-20T10:04:52.724Z,18.00
2022-10-20T10:07:22.281Z,18.00
2022-10-20T10:10:07.307Z,18.00
2022-10-20T10:12:35.963Z,18.00
2022-10-20T10:15:23.536Z,18.10
2022-10-20T10:17:51.097Z,18.20
2022-10-20T10:20:17.668Z,18.30
2022-10-20T10:22:44.697Z,18.30
2022-10-20T10:25:27.172Z,18.40
2022-10-20T10:28:08.754Z,18.40
2022-10-20T10:30:38.221Z,18.40
2022-10-20T10:33:23.698Z,18.50
2022-10-20T10:35:50.395Z,18.50
2022-10-20T10:38:17.245Z,18.50
2022-10-20T10:41:10.164Z,18.60
2022-10-20T10:44:03.100Z,18.60
2022-10-20T10:47:15.603Z,18.60
2022-10-20T10:49:50.940Z,18.60
2022-10-20T10:52:36.556Z,18.60
2022-10-20T10:55:43.734Z,18.70
2022-10-20T10:58:18.329Z,18.70
2022-10-20T11:00:54.095Z,18.70
2022-10-20T11:03:47.750Z,18.70
2022-10-20T11:06:21.293Z,18.70
2022-10-20T11:09:11.073Z,18.80
2022-10-20T11:11:59.651Z,18.80
2022-10-20T11:15:00.867Z,18.80
2022-10-20T11:17:52.339Z,18.80
2022-10-20T11:21:03.912Z,18.80
2022-10-20T11:23:45.620Z,18.80
2022-10-20T11:26:35.346Z,18.70
2022-10-20T11:29:06.112Z,18.80
2022-10-20T11:32:03.542Z,18.80
2022-10-20T11:34:38.688Z,18.80
2022-10-20T11:37:13.879Z,18.90
2022-10-20T11:39:45.980Z,18.90
2022-10-20T11:42:27.311Z,19.00
2022-10-20T11:44:56.782Z,19.10
2022-10-20T11:47:36.495Z,19.10
2022-10-20T11:50:11.132Z,19.20
2022-10-20T11:52:38.094Z,19.20
2022-10-20T11:55:26.304Z,19.30
2022-10-20T11:58:27.149Z,19.30
2022-10-20T12:01:09.279Z,19.30
2022-10-20T12:03:56.955Z,19.40
2022-10-20T12:06:34.097Z,19.40
2022-10-20T12:09:20.402Z,19.40
2022-10-20T12:11:59.858Z,19.40
2022-10-20T12:14:36.205Z,19.40
2022-10-20T12:17:05.251Z,19.40
2022-10-20T12:19:36.462Z,19.50
2022-10-20T12:22:13.556Z,19.50
2022-10-20T12:24:42.361Z,19.60
2022-10-20T12:27:09.027Z,19.60
2022-10-20T12:29:35.658Z,19.60
2022-10-20T12:32:26.197Z,19.60
2022-10-20T12:35:22.862Z,19.50
2022-10-20T12:37:56.291Z,19.50
2022-10-20T12:40:31.248Z,19.50
2022-10-20T12:42:58.261Z,19.50
2022-10-20T12:45:41.134Z,19.40
2022-10-20T12:48:19.830Z,19.40
2022-10-20T12:50:49.436Z,19.40
2022-10-20T12:53:19.160Z,19.40
2022-10-20T12:56:10.353Z,19.40
2022-10-20T12:59:09.086Z,19.40
2022-10-20T13:02:09.951Z,19.40
2022-10-20T13:04:57.834Z,19.50
2022-10-20T13:07:46.454Z,19.50
2022-10-20T13:10:31.409Z,19.60
2022-10-20T13:13:04.056Z,19.60
2022-10-20T13:15:39.029Z,19.60
2022-10-20T13:18:11.622Z,19.60
2022-10-20T13:20:56.158Z,19.50
2022-10-20T13:23:38.026Z,19.60
2022-10-20T13:26:22.031Z,19.50
2022-10-20T13:28:50.425Z,19.50
2022-10-20T13:31:38.869Z,19.40
2022-10-20T13:34:27.593Z,19.40
2022-10-20T13:37:21.689Z,19.40
2022-10-20T13:40:12.032Z,19.30
2022-10-20T13:43:15.596Z,19.30
2022-10-20T13:46:00.733Z,19.30
2022-10-20T13:48:54.908Z,19.20
2022-10-20T13:51:26.519Z,19.20
2022-10-20T13:53:56.846Z,19.10
2022-10-20T13:56:37.678Z,19.10
2022-10-20T13:59:12.120Z,19.10
2022-10-20T14:01:38.853Z,19.00
2022-10-20T14:04:25.273Z,19.00
2022-10-20T14:06:52.151Z,19.00
2022-10-20T14:09:22.605Z,18.90
2022-10-20T14:11:54.254Z,19.00
2022-10-20T14:14:25.447Z,19.00
2022-10-20T14:17:01.521Z,19.00
2022-10-20T14:19:28.983Z,19.10
2022-10-20T14:21:58.426Z,19.10
2022-10-20T14:24:32.662Z,19.10
2022-10-20T14:27:02.813Z,19.20
2022-10-20T14:29:32.959Z,19.20
2022-10-20T14:32:00.135Z,19.20
2022-10-20T14:34:33.938Z,19.20
2022-10-20T14:37:00.777Z,19.20
2022-10-20T14:39:37.273Z,19.20
2022-10-20T14:42:21.986Z,19.20
2022-10-20T14:44:50.574Z,19.30
2022-10-20T14:47:20.174Z,19.30
2022-10-20T14:49:52.604Z,19.30
2022-10-20T14:52:21.690Z,19.30
2022-10-20T14:54:50.786Z,19.30
2022-10-20T14:57:17.378Z,19.20
2022-10-20T14:59:59.191Z,19.10
2022-10-20T15:02:28.760Z,19.10
2022-10-20T15:04:55.459Z,19.10
2022-10-20T15:07:34.899Z,19.00
2022-10-20T15:10:14.553Z,19.00
2022-10-20T15:12:44.183Z,18.90
2022-10-20T15:15:10.794Z,18.90
2022-10-20T15:17:43.085Z,18.90
2022-10-20T15:20:32.184Z,18.80
2022-10-20T15:23:10.811Z,18.80
2022-10-20T15:25:54.409Z,18.80
2022-10-20T15:28:23.178Z,18.70
2022-10-20T15:30:50.040Z,18.80
2022-10-20T15:33:16.774Z,18.70
2022-10-20T15:35:47.068Z,18.70
2022-10-20T15:38:14.423Z,18.70
2022-10-20T15:40:41.320Z,18.60
2022-10-20T15:43:15.513Z,18.60
2022-10-20T15:45:51.029Z,18.50
2022-10-20T15:48:18.687Z,18.60
2022-10-20T15:50:46.026Z,18.50
2022-10-20T15:53:12.923Z,18.50
2022-10-20T15:55:42.543Z,18.50
2022-10-20T15:58:09.507Z,18.50
2022-10-20T16:00:36.722Z,18.50
2022-10-20T16:03:04.332Z,18.40
2022-10-20T16:05:31.614Z,18.40
2022-10-20T16:07:58.266Z,18.40
2022-10-20T16:10:29.422Z,18.30
2022-10-20T16:12:57.884Z,18.30
2022-10-20T16:15:28.890Z,18.30
2022-10-20T16:17:58.293Z,18.20
2022-10-20T16:20:24.936Z,18.20
2022-10-20T16:22:51.610Z,18.20
2022-10-20T16:25:18.355Z,18.20
2022-10-20T16:27:45.030Z,18.10
2022-10-20T16:30:11.801Z,18.10
2022-10-20T16:32:38.747Z,18.10
2022-10-20T16:35:05.969Z,18.10
2022-10-20T16:37:33.230Z,18.10
2022-10-20T16:40:00.320Z,18.10
2022-10-20T16:42:30.074Z,18.00
2022-10-20T16:44:57.327Z,18.00
2022-10-20T16:47:25.917Z,18.00
2022-10-20T16:49:52.850Z,18.00
2022-10-20T16:52:19.951Z,17.90
2022-10-20T16:54:46.575Z,17.90
2022-10-20T16:57:13.877Z,17.90
2022-10-20T16:59:41.237Z,17.90
2022-10-20T17:02:07.884Z,17.90
2022-10-20T17:04:34.548Z,17.80
2022-10-20T17:07:01.270Z,17.80
2022-10-20T17:09:29.905Z,17.80
2022-10-20T17:11:57.133Z,17.80
2022-10-20T17:14:23.769Z,17.80
2022-10-20T17:16:50.430Z,17.70
2022-10-20T17:19:17.333Z,17.70
2022-10-20T17:21:43.998Z,17.70
2022-10-20T17:24:12.484Z,17.70
2022-10-20T17:26:40.469Z,17.70
2022-10-20T17:29:08.393Z,17.60
2022-10-20T17:31:35.490Z,17.70
2022-10-20T17:34:02.270Z,17.60
2022-10-20T17:36:30.342Z,17.60
2022-10-20T17:39:05.761Z,17.60
2022-10-20T17:41:32.744Z,17.60
2022-10-20T17:44:04.534Z,17.60
2022-10-20T17:46:31.211Z,17.60
2022-10-20T17:48:57.813Z,17.60
2022-10-20T17:51:28.965Z,17.60
2022-10-20T17:53:58.765Z,17.60
2022-10-20T17:56:28.629Z,17.60
2022-10-20T17:58:56.199Z,17.50
2022-10-20T18:01:34.573Z,17.50
2022-10-20T18:04:13.092Z,17.50
2022-10-20T18:06:40.990Z,17.50
2022-10-20T18:09:13.492Z,17.50
2022-10-20T18:11:43.465Z,17.40
2022-10-20T18:14:10.073Z,17.40
2022-10-20T18:16:38.031Z,17.40
2022-10-20T18:19:05.400Z,17.40
2022-10-20T18:21:33.229Z,17.40
2022-10-20T18:24:02.699Z,17.40
2022-10-20T18:26:30.917Z,17.40
2022-10-20T18:28:58.797Z,17.30
2022-10-20T18:31:27.481Z,17.30
2022-10-20T18:34:05.730Z,17.30
2022-10-20T18:36:35.631Z,17.30
2022-10-20T18:39:03.897Z,17.20
2022-10-20T18:41:33.121Z,17.30
2022-10-20T18:44:01.505Z,17.20
2022-10-20T18:46:30.703Z,17.30
2022-10-20T18:48:58.045Z,17.20
2022-10-20T18:51:24.920Z,17.20
2022-10-20T18:53:54.862Z,17.20
2022-10-20T18:56:23.548Z,17.20
2022-10-20T18:58:55.409Z,17.20
2022-10-20T19:01:25.492Z,17.20
2022-10-20T19:03:54.204Z,17.20
2022-10-20T19:06:23.679Z,17.20
2022-10-20T19:08:59.367Z,17.20
2022-10-20T19:11:28.576Z,17.20
2022-10-20T19:13:55.802Z,17.20
2022-10-20T19:16:25.482Z,17.10
2022-10-20T19:18:54.276Z,17.10
2022-10-20T19:21:22.077Z,17.10
2022-10-20T19:23:51.664Z,17.10
2022-10-20T19:26:21.572Z,17.10
2022-10-20T19:28:56.072Z,17.10
2022-10-20T19:31:31.405Z,17.10
2022-10-20T19:34:05.633Z,17.10
2022-10-20T19:36:32.681Z,17.10
2022-10-20T19:38:59.381Z,17.10
2022-10-20T19:41:26.811Z,17.10
2022-10-20T19:43:53.793Z,17.10
2022-10-20T19:46:21.965Z,17.00
